Holy Angel — WDE3457 — position and weather

sailwx.info

Track history (hours):
 
Tides and Currents Weather Stations Pressure Air Temp Water Temp Dewpoint Dewpoint Depression Visibility Wind Speed Wind Dir Waves Ship Positions

Holy Angel

Owner: Marquette transportation Company LLC, Paducah, KY. More information available from US FCC via Universal Licensing System and Coast Guard Vessel Documentation Center.

Last reported at 2016-Feb-06 06:06 UTC. Time now 2016-Feb-07 21:53 UTC.
Position N 32°31' W 091°07'.

Length 40 m; draft 3 m.

Type: Towing. MMSI: 367339320.

Date/timePositionNaut miles runAvg speedWind from/ knotsBaromVisibWave heightAir tempDewpointWater temp
2016-Feb-06 06:06N 32°31' W 091°07'2 4.2
2016-Feb-06 05:33N 32°29' W 091°07'3 3.5
2016-Feb-06 04:33N 32°26' W 091°03'4 3.8
2016-Feb-06 03:33N 32°24' W 090°60'3 3.3
2016-Feb-06 02:33N 32°21' W 090°59'1 1.2
2016-Feb-06 01:33N 32°21' W 090°58'1 0.6
2016-Feb-06 00:33N 32°21' W 090°57'3 3.1
2016-Feb-05 23:33N 32°19' W 090°54'4 3.7
2016-Feb-05 22:33N 32°17' W 090°57'4 4.3
2016-Feb-05 21:33N 32°13' W 090°59'4 3.9
2016-Feb-05 20:33N 32°09' W 091°00'3 2.8
2016-Feb-05 19:33N 32°07' W 091°03'3 2.7
2016-Feb-05 18:32N 32°06' W 091°06'4 4.3
2016-Feb-05 17:33N 32°03' W 091°04'15 3.8
2016-Feb-05 13:28N 31°52' W 091°16'  
2016-Jan-29 02:14N 31°59' W 091°06'5 7.5
2016-Jan-29 01:32N 32°04' W 091°04'3 3.3
2016-Jan-29 00:33N 32°07' W 091°02'23 5.7
2016-Jan-28 20:29N 32°30' W 091°07'7 7.2
2016-Jan-28 19:33N 32°37' W 091°09'16 3.9
2016-Jan-28 15:31N 32°52' W 091°05'  
Track history (hours):
 
Tides and Currents Weather Stations Pressure Air Temp Water Temp Dewpoint Dewpoint Depression Visibility Wind Speed Wind Dir Waves Ship Positions

Holy Angel

Owner: Marquette transportation Company LLC, Paducah, KY. More information available from US FCC via Universal Licensing System and Coast Guard Vessel Documentation Center.

Last reported at 2016-Feb-06 06:06 UTC. Time now 2016-Feb-07 21:53 UTC.
Position N 32°31' W 091°07'.

Length 40 m; draft 3 m.

Type: Towing. MMSI: 367339320.

Date/timePositionNaut miles runAvg speedWind from/ knotsBaromVisibWave heightAir tempDewpointWater temp
2016-Feb-06 06:06N 32°31' W 091°07'2 4.2
2016-Feb-06 05:33N 32°29' W 091°07'3 3.5
2016-Feb-06 04:33N 32°26' W 091°03'4 3.8
2016-Feb-06 03:33N 32°24' W 090°60'3 3.3
2016-Feb-06 02:33N 32°21' W 090°59'1 1.2
2016-Feb-06 01:33N 32°21' W 090°58'1 0.6
2016-Feb-06 00:33N 32°21' W 090°57'3 3.1
2016-Feb-05 23:33N 32°19' W 090°54'4 3.7
2016-Feb-05 22:33N 32°17' W 090°57'4 4.3
2016-Feb-05 21:33N 32°13' W 090°59'4 3.9
2016-Feb-05 20:33N 32°09' W 091°00'3 2.8
2016-Feb-05 19:33N 32°07' W 091°03'3 2.7
2016-Feb-05 18:32N 32°06' W 091°06'4 4.3
2016-Feb-05 17:33N 32°03' W 091°04'15 3.8
2016-Feb-05 13:28N 31°52' W 091°16'  
2016-Jan-29 02:14N 31°59' W 091°06'5 7.5
2016-Jan-29 01:32N 32°04' W 091°04'3 3.3
2016-Jan-29 00:33N 32°07' W 091°02'23 5.7
2016-Jan-28 20:29N 32°30' W 091°07'7 7.2
2016-Jan-28 19:33N 32°37' W 091°09'16 3.9
2016-Jan-28 15:31N 32°52' W 091°05'  

Dump ship's entire track history